Time;durP1;ratioP1;P1;durP2;ratioP2;P2;SDS_P1;SDS_P2;PMS_P1;PMS_P2;Temp;Humidity;BMP_temperature;BMP_pressure;BME280_temperature;BME280_humidity;BME280_pressure;Samples;Min_cycle;Max_cycle;Signal;HPM_P1;HPM_P2
2023/07/18 00:01:48;;;;;;;3.10;1.13;;;16.80;95.10;;;16.59;74.33;97794.44;5009228;28;20260;-35
2023/07/18 00:04:14;;;;;;;2.03;1.17;;;16.70;94.80;;;16.59;74.20;97802.44;5011883;28;20036;-35
2023/07/18 00:06:41;;;;;;;1.88;0.95;;;16.80;94.90;;;16.66;70.58;97804.78;5006850;28;20754;-36
2023/07/18 00:09:08;;;;;;;2.30;1.13;;;16.80;94.00;;;16.70;68.91;97809.81;5019009;28;20029;-36
2023/07/18 00:11:33;;;;;;;1.55;1.10;;;16.80;93.70;;;16.83;64.64;97811.81;5016149;28;20032;-36
2023/07/18 00:13:59;;;;;;;2.20;1.10;;;16.90;92.70;;;16.89;64.70;97809.72;5018430;28;20392;-36
2023/07/18 00:16:25;;;;;;;1.88;1.02;;;16.90;92.70;;;16.90;63.52;97795.44;5011039;28;20052;-36
2023/07/18 00:18:52;;;;;;;3.97;1.02;;;17.00;92.40;;;17.11;62.00;97814.69;5013421;28;20329;-37
2023/07/18 00:21:18;;;;;;;1.70;0.80;;;17.10;92.00;;;17.14;62.57;97811.84;5005695;28;20037;-37
2023/07/18 00:23:43;;;;;;;3.70;0.88;;;17.20;92.10;;;17.17;63.00;97817.00;5012348;28;20071;-36
2023/07/18 00:26:09;;;;;;;1.58;0.80;;;17.20;92.30;;;17.16;64.42;97815.28;5014463;28;20462;-36
2023/07/18 00:28:35;;;;;;;2.08;1.00;;;17.20;92.60;;;17.16;64.52;97812.63;5011476;28;20409;-36
2023/07/18 00:31:03;;;;;;;2.20;0.95;;;17.20;92.60;;;17.12;65.01;97811.09;5008616;28;20021;-36
2023/07/18 00:33:28;;;;;;;3.05;1.20;;;17.20;92.70;;;17.10;63.54;97812.09;5008607;28;20033;-36
2023/07/18 00:35:54;;;;;;;3.17;1.05;;;17.20;92.40;;;17.08;64.20;97814.00;5021319;28;20131;-37
2023/07/18 00:38:20;;;;;;;1.45;0.90;;;17.10;92.50;;;17.04;66.34;97813.31;5020777;28;20111;-36
2023/07/18 00:40:49;;;;;;;2.63;1.10;;;17.10;93.00;;;16.98;67.05;97814.50;5015777;28;20166;-36
2023/07/18 00:43:15;;;;;;;1.98;0.98;;;17.10;93.30;;;16.94;66.44;97806.78;5019845;28;20106;-36
2023/07/18 00:45:49;;;;;;;2.70;1.10;;;17.00;93.10;;;16.91;66.06;97809.63;5019905;28;20072;-36
2023/07/18 00:48:15;;;;;;;2.97;1.10;;;17.00;93.00;;;16.89;66.95;97807.03;5015593;28;20017;-36
2023/07/18 00:50:41;;;;;;;2.67;1.23;;;17.00;93.00;;;16.88;65.40;97807.97;5009630;28;20056;-36
2023/07/18 00:53:07;;;;;;;2.40;0.80;;;16.90;92.90;;;16.87;66.08;97802.72;5003926;28;20477;-36
2023/07/18 00:55:33;;;;;;;1.83;0.80;;;17.00;93.00;;;16.82;67.01;97807.44;5010404;28;20291;-36
2023/07/18 00:57:59;;;;;;;2.20;1.05;;;16.90;93.30;;;16.77;70.04;97799.72;5014128;28;20029;-36
2023/07/18 01:00:25;;;;;;;1.42;0.88;;;16.80;94.00;;;16.67;71.71;97796.72;5014177;28;20036;-36
2023/07/18 01:02:51;;;;;;;4.97;1.10;;;16.80;94.40;;;16.61;73.71;97797.03;5011853;28;20037;-36
2023/07/18 01:05:19;;;;;;;1.58;0.82;;;16.70;94.80;;;16.52;75.75;97793.06;5016607;28;20034;-36
2023/07/18 01:07:46;;;;;;;2.13;1.10;;;16.60;95.30;;;16.44;77.71;97799.75;5012356;28;20064;-36
2023/07/18 01:10:23;;;;;;;1.98;0.95;;;16.60;95.90;;;16.35;77.57;97793.13;5011911;28;20025;-37
2023/07/18 01:12:54;;;;;;;4.97;1.20;;;16.50;95.80;;;16.29;78.75;97791.66;5007843;28;20029;-36
2023/07/18 01:15:21;;;;;;;2.23;1.20;;;16.40;96.00;;;16.16;81.94;97786.13;5014266;28;20134;-37
2023/07/18 01:17:48;;;;;;;2.17;1.10;;;16.40;96.80;;;16.17;83.47;97793.19;5012729;28;20307;-36
2023/07/18 01:20:26;;;;;;;2.63;1.50;;;16.30;97.20;;;16.10;84.32;97789.13;5012605;28;20720;-36
2023/07/18 01:22:55;;;;;;;2.47;1.30;;;16.20;97.40;;;16.08;84.88;97790.13;5012402;28;20125;-36
2023/07/18 01:25:21;;;;;;;3.45;1.48;;;16.20;97.60;;;16.08;84.66;97775.06;4992529;28;20037;-36
2023/07/18 01:27:49;;;;;;;1.90;1.20;;;16.20;97.60;;;16.05;87.85;97775.22;5004965;28;20025;-36
2023/07/18 01:30:18;;;;;;;2.30;1.10;;;16.20;98.30;;;16.02;88.79;97775.34;5008977;28;20122;-36
2023/07/18 01:32:48;;;;;;;2.13;1.10;;;16.10;98.50;;;15.96;88.82;97776.53;5011687;28;20072;-36
2023/07/18 01:35:15;;;;;;;2.45;1.20;;;16.10;98.50;;;15.92;87.55;97780.31;5015209;28;20865;-36
2023/07/18 01:37:44;;;;;;;2.65;1.20;;;16.00;98.20;;;15.88;86.57;97769.91;5008094;28;20456;-36
2023/07/18 01:40:12;;;;;;;2.55;1.10;;;16.00;98.00;;;15.85;87.32;97786.91;5007400;28;20076;-36
2023/07/18 01:42:39;;;;;;;2.08;1.27;;;16.00;98.30;;;15.80;88.29;97771.16;5009935;28;20064;-36
2023/07/18 01:45:06;;;;;;;2.30;1.48;;;15.90;98.50;;;15.78;88.84;97774.84;5010811;28;20033;-36
2023/07/18 01:47:31;;;;;;;2.95;1.50;;;15.90;98.60;;;15.74;91.50;97778.56;5019548;28;20119;-35
2023/07/18 01:49:59;;;;;;;3.22;1.48;;;15.80;99.20;;;15.70;93.43;97772.53;5020946;28;20463;-36
2023/07/18 01:52:27;;;;;;;5.07;1.60;;;15.80;99.70;;;15.59;94.41;97765.13;5011049;28;20068;-36
2023/07/18 01:54:54;;;;;;;2.40;1.40;;;15.80;99.90;;;15.64;95.40;97775.53;5006658;28;20345;-36
2023/07/18 01:57:20;;;;;;;3.78;1.30;;;15.70;99.90;;;15.61;96.55;97776.56;5004247;28;20036;-37
2023/07/18 01:59:45;;;;;;;2.38;1.25;;;15.70;99.90;;;15.55;97.67;97773.34;5004638;28;20590;-36
2023/07/18 02:02:11;;;;;;;2.35;1.35;;;15.70;99.90;;;15.57;98.11;97784.75;4999303;28;20033;-36
2023/07/18 02:04:37;;;;;;;3.97;1.45;;;15.70;99.90;;;15.54;98.93;97777.81;5009874;28;20041;-36
2023/07/18 02:07:03;;;;;;;3.08;1.40;;;15.60;99.90;;;15.51;99.81;97771.78;5018662;28;20028;-36
2023/07/18 02:09:28;;;;;;;1.77;1.40;;;15.60;99.90;;;15.49;100.00;97765.66;5010839;28;20044;-36
2023/07/18 02:11:54;;;;;;;3.40;1.60;;;15.60;99.90;;;15.45;100.00;97770.28;5009553;28;20029;-36
2023/07/18 02:14:20;;;;;;;2.15;1.50;;;15.60;99.90;;;15.41;100.00;97763.41;5010546;28;20076;-36
2023/07/18 02:16:46;;;;;;;2.22;1.77;;;15.50;99.90;;;15.39;100.00;97762.63;5020306;28;20041;-36
2023/07/18 02:19:13;;;;;;;1.88;1.10;;;15.50;99.90;;;15.34;100.00;97760.19;5011671;28;20494;-36
2023/07/18 02:21:38;;;;;;;3.10;1.80;;;15.40;99.90;;;15.27;100.00;97764.09;5014818;28;20029;-36
2023/07/18 02:24:05;;;;;;;3.00;1.23;;;15.40;99.90;;;15.22;100.00;97759.03;5021784;28;20060;-37
2023/07/18 02:26:30;;;;;;;2.72;1.30;;;15.40;99.90;;;15.19;100.00;97771.59;5011445;28;20044;-35
2023/07/18 02:28:56;;;;;;;4.63;1.30;;;15.30;99.90;;;15.14;100.00;97773.63;5018500;28;20033;-35
2023/07/18 02:31:22;;;;;;;4.38;1.50;;;15.30;99.90;;;15.10;100.00;97774.72;5016157;28;20029;-35
2023/07/18 02:33:48;;;;;;;3.20;1.50;;;15.30;99.90;;;15.01;100.00;97760.09;5020610;28;20060;-35
2023/07/18 02:36:13;;;;;;;2.10;1.10;;;15.20;99.90;;;15.02;100.00;97764.44;5020736;28;20358;-35
2023/07/18 02:38:39;;;;;;;1.67;1.05;;;15.20;99.90;;;14.99;100.00;97768.13;5017686;28;20325;-36
2023/07/18 02:41:05;;;;;;;2.03;1.13;;;15.10;99.90;;;14.80;100.00;97744.25;5014864;28;20587;-36
2023/07/18 02:43:30;;;;;;;1.70;0.85;;;15.10;99.90;;;14.98;100.00;97762.91;5021781;28;20034;-35
2023/07/18 02:45:56;;;;;;;2.38;1.25;;;15.10;99.90;;;14.97;100.00;97764.69;4997197;28;21071;-35
2023/07/18 02:48:22;;;;;;;2.70;1.40;;;15.10;99.90;;;14.99;100.00;97757.50;5003707;28;20029;-35
2023/07/18 02:50:50;;;;;;;2.15;1.40;;;15.10;99.90;;;14.99;100.00;97770.78;5011161;28;20726;-35
2023/07/18 02:53:16;;;;;;;3.35;1.27;;;15.10;99.90;;;14.96;100.00;97767.44;5005853;28;20401;-36
2023/07/18 02:55:42;;;;;;;1.98;1.40;;;15.10;99.90;;;14.94;100.00;97772.81;5010358;28;20048;-36
2023/07/18 02:58:08;;;;;;;5.57;1.73;;;15.10;99.90;;;14.91;100.00;97767.63;5005811;28;20116;-36
2023/07/18 03:00:33;;;;;;;3.92;1.55;;;15.00;99.90;;;14.86;100.00;97767.88;5008223;28;20062;-36
2023/07/18 03:03:00;;;;;;;3.78;1.73;;;15.00;99.90;;;14.84;100.00;97767.09;5009279;28;20030;-36
2023/07/18 03:05:27;;;;;;;3.20;1.60;;;15.00;99.90;;;14.82;100.00;97768.97;5006165;28;20037;-36
2023/07/18 03:07:54;;;;;;;2.60;1.33;;;15.00;99.90;;;14.79;100.00;97765.59;5006209;28;20056;-36
2023/07/18 03:10:21;;;;;;;2.38;1.40;;;14.90;99.90;;;14.69;100.00;97747.44;5002119;28;20152;-35
2023/07/18 03:12:47;;;;;;;6.53;1.50;;;14.90;99.90;;;14.69;100.00;97750.09;5007610;28;20041;-37
2023/07/18 03:15:13;;;;;;;4.22;1.70;;;14.90;99.90;;;14.75;100.00;97764.00;4999495;28;20906;-36
2023/07/18 03:17:38;;;;;;;3.08;1.60;;;14.90;99.90;;;14.72;100.00;97770.34;5016415;28;20299;-36
2023/07/18 03:20:11;;;;;;;2.20;1.42;;;14.90;99.90;;;14.69;100.00;97766.00;5022120;28;20517;-36
2023/07/18 03:22:37;;;;;;;4.07;1.65;;;14.90;99.90;;;14.67;100.00;97767.03;5015429;28;20537;-36
2023/07/18 03:25:07;;;;;;;3.50;1.58;;;14.80;99.90;;;14.62;100.00;97759.28;5014167;28;20037;-35
2023/07/18 03:27:33;;;;;;;2.75;1.23;;;14.70;99.90;;;14.58;100.00;97757.72;5014382;28;20033;-36
2023/07/18 03:29:59;;;;;;;3.33;1.17;;;14.70;99.90;;;14.49;100.00;97758.13;5013549;28;20045;-36
2023/07/18 03:32:25;;;;;;;3.67;1.08;;;14.70;99.90;;;14.46;100.00;97752.94;5006268;28;20381;-36
2023/07/18 03:34:51;;;;;;;4.30;1.52;;;14.70;99.90;;;14.45;100.00;97748.59;5016720;28;20039;-35
2023/07/18 03:37:17;;;;;;;5.40;1.30;;;14.70;99.90;;;14.44;100.00;97744.19;5008381;28;20129;-36
2023/07/18 03:39:42;;;;;;;2.60;1.35;;;14.70;99.90;;;14.43;100.00;97745.16;5011716;28;20400;-36
2023/07/18 03:42:08;;;;;;;2.03;1.20;;;14.70;99.90;;;14.43;100.00;97750.47;4998189;28;20065;-37
2023/07/18 03:44:34;;;;;;;5.28;1.40;;;14.60;99.90;;;14.37;100.00;97745.41;5006577;28;20404;-36
2023/07/18 03:46:59;;;;;;;1.90;1.30;;;14.60;99.90;;;14.27;100.00;97745.00;5012630;28;20033;-36
2023/07/18 03:49:25;;;;;;;2.92;1.42;;;14.50;99.90;;;14.21;100.00;97745.28;5012117;28;20378;-36
2023/07/18 03:51:51;;;;;;;1.90;1.23;;;14.50;99.90;;;14.20;100.00;97754.16;5011356;28;20975;-35
2023/07/18 03:54:17;;;;;;;1.98;1.17;;;14.40;99.90;;;14.16;100.00;97756.09;5007248;28;20044;-36
2023/07/18 03:56:42;;;;;;;4.85;1.25;;;14.40;99.90;;;14.15;100.00;97754.38;5020632;28;20393;-35
2023/07/18 03:59:08;;;;;;;1.73;1.10;;;14.40;99.90;;;14.18;100.00;97753.38;5007490;28;20053;-36
2023/07/18 04:01:34;;;;;;;4.05;1.40;;;14.40;99.90;;;14.18;100.00;97756.91;5005044;28;20049;-36
2023/07/18 04:03:59;;;;;;;2.40;1.30;;;14.40;99.90;;;14.20;100.00;97755.03;5005327;28;20790;-36
2023/07/18 04:06:25;;;;;;;2.83;1.10;;;14.40;99.90;;;14.22;100.00;97745.19;5016529;28;20401;-36
2023/07/18 04:08:50;;;;;;;2.05;1.10;;;14.40;99.90;;;14.24;100.00;97745.97;5011303;28;20129;-36
2023/07/18 04:11:16;;;;;;;2.60;1.35;;;14.40;99.90;;;14.26;100.00;97746.78;5011917;28;20034;-36
2023/07/18 04:13:42;;;;;;;2.55;1.27;;;14.40;99.90;;;14.28;100.00;97752.00;5007289;28;20076;-36
2023/07/18 04:16:08;;;;;;;4.05;1.40;;;14.50;99.90;;;14.29;100.00;97743.13;5002375;28;23443;-36
2023/07/18 04:18:34;;;;;;;1.60;1.20;;;14.50;99.90;;;14.32;100.00;97745.66;5018474;28;20410;-36
2023/07/18 04:21:01;;;;;;;2.30;1.20;;;14.50;99.90;;;14.31;100.00;97736.81;5005789;28;20041;-36
2023/07/18 04:23:27;;;;;;;3.53;1.52;;;14.50;99.90;;;14.42;100.00;97740.75;4994566;28;20054;-36
2023/07/18 04:25:58;;;;;;;4.40;1.73;;;14.60;99.90;;;14.54;100.00;97747.31;4994319;28;20226;-36
2023/07/18 04:28:26;;;;;;;3.88;1.80;;;14.70;99.90;;;14.61;100.00;97740.78;4996273;28;20460;-36
2023/07/18 04:30:52;;;;;;;4.13;1.75;;;14.70;99.90;;;14.67;100.00;97749.31;5002006;28;20045;-36
2023/07/18 04:33:17;;;;;;;3.17;1.73;;;14.80;99.90;;;14.73;100.00;97741.97;4995877;28;20649;-36
2023/07/18 04:35:45;;;;;;;5.63;2.25;;;14.90;99.90;;;14.65;100.00;97716.66;4990995;28;20402;-38
2023/07/18 04:38:11;;;;;;;3.97;1.60;;;15.00;99.90;;;14.85;100.00;97736.09;4991560;28;20026;-39
2023/07/18 04:40:36;;;;;;;1.75;1.25;;;15.10;99.90;;;14.95;100.00;97745.31;5000629;28;20048;-38
2023/07/18 04:43:02;;;;;;;4.18;1.48;;;15.10;99.90;;;15.00;100.00;97745.09;4995922;28;20124;-38
2023/07/18 04:45:28;;;;;;;4.70;2.10;;;15.20;99.90;;;15.03;100.00;97743.13;4971864;28;21200;-38
2023/07/18 04:47:53;;;;;;;5.47;2.15;;;15.20;99.90;;;15.08;100.00;97735.81;4994322;28;20029;-38
2023/07/18 04:50:19;;;;;;;4.50;2.30;;;15.30;99.90;;;15.15;100.00;97736.38;5013566;28;20772;-39
2023/07/18 04:52:45;;;;;;;5.47;2.50;;;15.30;99.90;;;15.22;100.00;97737.78;5012954;28;20037;-38
2023/07/18 04:55:10;;;;;;;4.18;2.47;;;15.40;99.90;;;15.26;100.00;97733.16;5012070;28;20042;-38
2023/07/18 04:57:36;;;;;;;4.97;2.40;;;15.50;99.90;;;15.36;100.00;97738.88;5016582;28;20052;-38
2023/07/18 05:00:05;;;;;;;4.28;1.98;;;15.50;99.90;;;15.38;100.00;97732.56;5012431;28;20076;-41
2023/07/18 05:02:31;;;;;;;5.00;1.75;;;15.60;99.90;;;15.49;100.00;97736.44;5017887;28;20577;-38
2023/07/18 05:04:56;;;;;;;3.83;1.60;;;15.60;99.90;;;15.52;100.00;97733.63;5022719;28;20033;-40
2023/07/18 05:07:22;;;;;;;4.50;1.88;;;15.70;99.90;;;15.46;100.00;97714.41;5013879;28;20608;-38
2023/07/18 05:09:48;;;;;;;4.00;2.10;;;15.70;99.90;;;15.61;100.00;97743.78;5010734;28;20116;-40
2023/07/18 05:12:14;;;;;;;5.30;1.92;;;15.80;99.90;;;15.70;100.00;97734.47;5015835;28;20025;-38
2023/07/18 05:14:40;;;;;;;5.63;2.22;;;15.80;99.90;;;15.79;100.00;97731.34;5009616;28;20032;-38
2023/07/18 05:17:06;;;;;;;4.90;2.35;;;15.90;99.90;;;15.89;100.00;97729.09;5013182;28;20029;-39
2023/07/18 05:19:31;;;;;;;3.72;2.33;;;16.00;99.90;;;16.01;100.00;97736.41;5018957;28;20722;-38
2023/07/18 05:21:57;;;;;;;4.43;2.83;;;16.10;99.90;;;16.09;100.00;97728.88;5020411;28;20028;-38
2023/07/18 05:24:23;;;;;;;4.43;2.00;;;16.20;99.90;;;16.17;100.00;97726.66;5008359;28;20165;-38
2023/07/18 05:26:49;;;;;;;5.90;1.90;;;16.30;99.90;;;16.25;100.00;97720.91;5011734;28;20087;-38
2023/07/18 05:29:14;;;;;;;4.25;1.90;;;16.40;99.90;;;16.37;100.00;97722.06;5013382;28;20591;-38
2023/07/18 05:31:40;;;;;;;3.80;2.00;;;16.50;99.90;;;16.53;100.00;97725.56;5014546;28;21411;-39
2023/07/18 05:34:06;;;;;;;2.55;1.80;;;16.60;99.90;;;16.57;100.00;97719.13;5017366;28;20033;-37
2023/07/18 05:36:32;;;;;;;3.13;2.10;;;16.70;99.90;;;16.80;100.00;97722.31;5012451;28;20048;-37
2023/07/18 05:38:57;;;;;;;4.80;2.53;;;16.80;99.90;;;17.03;100.00;97723.69;5028182;28;20123;-38
2023/07/18 05:41:23;;;;;;;8.23;2.33;;;17.00;99.90;;;17.03;100.00;97697.03;5008718;28;20077;-39
2023/07/18 05:43:49;;;;;;;5.60;2.63;;;17.20;99.90;;;17.21;100.00;97703.09;5012712;28;20041;-39
2023/07/18 05:46:14;;;;;;;3.70;2.28;;;17.30;99.90;;;17.51;100.00;97715.53;5007089;28;20437;-40
2023/07/18 05:48:40;;;;;;;3.88;2.60;;;17.50;99.90;;;17.76;100.00;97714.91;5020971;28;20037;-39
2023/07/18 05:51:07;;;;;;;4.45;2.30;;;17.60;99.90;;;17.90;97.62;97708.75;5013691;28;20385;-38
2023/07/18 05:53:33;;;;;;;7.22;3.30;;;17.80;99.90;;;18.10;94.13;97718.19;5004738;28;20057;-38
2023/07/18 05:55:58;;;;;;;6.55;3.13;;;18.00;99.90;;;18.21;94.53;97714.84;5017539;28;20021;-37
2023/07/18 05:58:24;;;;;;;10.50;3.45;;;18.10;99.90;;;18.35;93.03;97712.16;5010782;28;20033;-37
2023/07/18 06:00:50;;;;;;;7.60;3.50;;;18.30;99.90;;;18.43;90.02;97711.66;5009004;28;21767;-37
2023/07/18 06:03:15;;;;;;;6.97;2.80;;;18.40;99.90;;;18.51;86.46;97707.53;5017513;28;20029;-37
2023/07/18 06:05:41;;;;;;;5.03;2.80;;;18.50;99.90;;;18.60;82.51;97699.91;5024979;28;20075;-38
2023/07/18 06:08:09;;;;;;;4.10;2.42;;;18.60;99.90;;;18.68;81.02;97708.28;5021706;28;20029;-38
2023/07/18 06:10:35;;;;;;;8.07;3.40;;;18.70;99.90;;;18.74;80.90;97701.69;5016495;28;20124;-37
2023/07/18 06:13:00;;;;;;;7.53;3.33;;;18.80;99.90;;;18.82;80.86;97702.06;5014803;28;20346;-35
2023/07/18 06:15:26;;;;;;;7.90;3.05;;;18.80;99.90;;;18.95;81.28;97707.47;5012454;28;20343;-35
2023/07/18 06:17:52;;;;;;;6.40;2.95;;;18.90;99.90;;;19.00;77.39;97703.50;5017060;28;20052;-35
2023/07/18 06:20:18;;;;;;;5.75;2.75;;;19.00;99.90;;;19.11;77.51;97693.94;5017557;28;20060;-34
2023/07/18 06:22:44;;;;;;;5.60;2.67;;;19.10;99.90;;;19.05;73.19;97677.34;5023940;28;20037;-34
2023/07/18 06:25:11;;;;;;;5.05;3.03;;;19.20;99.90;;;19.20;72.92;97695.97;5019418;28;20448;-34
2023/07/18 06:27:37;;;;;;;5.68;2.60;;;19.20;99.90;;;19.27;72.80;97692.81;5018985;28;20030;-35
2023/07/18 06:30:03;;;;;;;11.50;3.15;;;19.30;99.90;;;19.39;72.31;97695.59;5026666;28;20029;-37
2023/07/18 06:32:30;;;;;;;5.95;3.00;;;19.40;99.90;;;19.49;67.12;97690.47;5024563;28;20850;-34
2023/07/18 06:34:56;;;;;;;9.52;3.03;;;19.50;99.90;;;19.53;69.56;97684.81;5018783;28;20470;-34
2023/07/18 06:37:21;;;;;;;6.05;2.90;;;19.50;99.90;;;19.61;68.61;97692.31;5025089;28;20053;-36
2023/07/18 06:39:50;;;;;;;4.68;2.28;;;19.60;99.90;;;19.70;68.14;97680.13;5025751;28;20017;-35
2023/07/18 06:42:16;;;;;;;3.15;2.30;;;19.60;99.90;;;19.84;68.37;97678.22;5017338;28;20312;-35
2023/07/18 06:44:42;;;;;;;4.88;2.22;;;19.80;99.90;;;20.00;68.05;97678.00;5019291;28;20022;-36
2023/07/18 06:47:08;;;;;;;9.35;2.70;;;19.90;99.90;;;20.17;66.87;97684.84;5013418;28;20518;-35
2023/07/18 06:49:33;;;;;;;5.72;2.78;;;20.10;99.90;;;20.31;65.39;97675.78;5022324;28;20025;-35
2023/07/18 06:51:59;;;;;;;3.78;2.33;;;20.20;99.90;;;20.47;65.01;97682.72;5017711;28;20463;-36
2023/07/18 06:54:25;;;;;;;4.88;2.33;;;20.40;99.90;;;20.57;63.58;97681.09;5015078;28;20067;-35
2023/07/18 06:56:50;;;;;;;7.43;2.90;;;20.40;99.50;;;20.66;65.99;97677.78;5024845;28;20420;-35
2023/07/18 06:59:16;;;;;;;4.40;2.38;;;20.50;99.90;;;20.63;63.57;97667.28;5017184;28;20033;-35
2023/07/18 07:01:42;;;;;;;5.50;2.75;;;20.60;99.30;;;20.79;58.52;97678.56;5018689;28;20507;-36
2023/07/18 07:04:08;;;;;;;4.65;2.40;;;20.70;98.00;;;20.79;60.03;97675.03;5019598;28;20488;-36
2023/07/18 07:06:41;;;;;;;5.20;2.30;;;20.70;98.00;;;20.88;59.86;97670.81;5017067;28;20029;-35
2023/07/18 07:09:08;;;;;;;6.30;2.58;;;20.80;98.00;;;20.94;59.84;97675.72;5016088;28;20480;-35
2023/07/18 07:11:36;;;;;;;7.28;2.47;;;20.80;98.10;;;21.01;59.37;97673.44;5017679;28;20044;-36
2023/07/18 07:14:04;;;;;;;4.53;2.10;;;20.90;97.80;;;21.05;58.52;97666.84;5016411;28;20431;-35
2023/07/18 07:16:29;;;;;;;4.47;2.40;;;21.00;97.60;;;21.21;56.19;97672.78;5015790;28;20452;-35
2023/07/18 07:18:55;;;;;;;5.47;2.45;;;21.10;96.90;;;21.35;56.12;97672.59;5031230;28;20045;-35
2023/07/18 07:21:21;;;;;;;5.25;2.80;;;21.20;96.50;;;21.53;55.09;97665.00;5023531;28;20045;-35
2023/07/18 07:23:46;;;;;;;6.97;2.83;;;21.30;96.30;;;21.68;54.30;97667.47;5017963;28;20381;-37
2023/07/18 07:26:12;;;;;;;4.80;2.35;;;21.40;95.90;;;21.85;53.91;97663.44;5021085;28;20103;-37
2023/07/18 07:28:38;;;;;;;4.68;2.38;;;21.50;95.70;;;21.97;52.64;97653.56;5029111;28;20503;-34
2023/07/18 07:31:05;;;;;;;5.25;2.35;;;21.60;95.10;;;22.10;53.24;97651.59;5015956;28;20033;-35
2023/07/18 07:33:31;;;;;;;4.07;2.50;;;21.80;95.30;;;22.23;51.50;97646.09;5027986;28;20038;-35
2023/07/18 07:35:56;;;;;;;4.93;2.00;;;21.90;94.70;;;22.32;51.30;97644.53;5032221;28;20542;-35
2023/07/18 07:38:22;;;;;;;5.70;2.95;;;22.00;94.20;;;22.30;50.12;97641.97;5023666;28;20041;-38
2023/07/18 07:40:49;;;;;;;5.18;2.30;;;22.10;93.70;;;22.26;51.81;97640.47;5025387;28;20029;-36
2023/07/18 07:43:15;;;;;;;4.90;2.30;;;22.10;94.40;;;22.33;52.04;97646.25;5022488;28;20033;-36
2023/07/18 07:45:40;;;;;;;4.70;2.60;;;22.20;94.30;;;22.31;49.46;97638.31;5022061;28;20485;-36
2023/07/18 07:48:06;;;;;;;5.53;2.40;;;22.20;93.40;;;22.24;54.51;97639.75;5021997;28;20193;-36
2023/07/18 07:50:33;;;;;;;4.22;2.20;;;22.10;94.80;;;22.18;51.37;97627.69;5022368;28;20405;-37
2023/07/18 07:52:59;;;;;;;6.78;2.53;;;22.10;93.80;;;22.22;51.45;97620.22;5026455;28;20060;-36
2023/07/18 07:55:25;;;;;;;4.22;2.20;;;22.20;93.50;;;22.33;50.71;97624.75;5018605;28;20094;-36
2023/07/18 07:57:51;;;;;;;4.68;2.20;;;22.20;93.40;;;22.34;49.77;97621.09;5018032;28;20072;-36
2023/07/18 08:00:18;;;;;;;9.95;2.40;;;22.20;93.10;;;22.32;49.77;97617.66;5019497;28;20481;-37
2023/07/18 08:02:44;;;;;;;2.90;1.90;;;22.20;92.60;;;22.33;51.01;97619.38;5025103;28;20469;-37
2023/07/18 08:05:10;;;;;;;5.75;2.10;;;22.20;93.30;;;22.45;49.84;97613.88;5024464;28;20036;-36
2023/07/18 08:07:36;;;;;;;5.60;2.38;;;22.30;92.90;;;22.56;50.00;97610.28;5029544;28;20519;-36
2023/07/18 08:10:03;;;;;;;4.20;2.30;;;22.40;92.70;;;22.68;51.87;97614.66;5025152;28;20028;-36
2023/07/18 08:12:29;;;;;;;4.05;1.92;;;22.50;93.80;;;22.79;50.43;97615.56;5022477;28;20072;-38
2023/07/18 08:14:54;;;;;;;5.38;2.20;;;22.60;93.00;;;22.86;50.20;97606.88;5012717;28;20033;-36
2023/07/18 08:17:20;;;;;;;4.82;2.20;;;22.70;92.60;;;22.92;47.97;97610.88;5013614;28;20041;-36
2023/07/18 08:19:46;;;;;;;2.85;1.85;;;22.80;91.40;;;22.97;47.91;97613.19;5016926;28;20029;-36
2023/07/18 08:22:11;;;;;;;4.63;2.03;;;22.80;91.40;;;23.01;48.07;97601.19;5013543;28;20076;-36
2023/07/18 08:24:38;;;;;;;5.55;2.67;;;22.80;91.30;;;23.01;46.93;97604.72;5022412;28;20029;-36
2023/07/18 08:27:03;;;;;;;3.40;1.95;;;22.80;90.50;;;22.99;46.14;97606.69;5015372;28;20044;-36
2023/07/18 08:29:32;;;;;;;4.50;2.42;;;22.80;90.00;;;22.99;48.13;97595.09;5020244;28;20617;-37
2023/07/18 08:31:58;;;;;;;5.03;2.50;;;22.90;91.70;;;23.02;48.24;97593.00;5014355;28;20116;-37
2023/07/18 08:34:24;;;;;;;4.18;1.80;;;22.90;91.40;;;23.12;46.37;97592.25;5011838;28;20036;-37
2023/07/18 08:36:50;;;;;;;3.30;1.88;;;23.00;90.20;;;23.16;45.45;97586.47;5014553;28;20032;-37
2023/07/18 08:39:16;;;;;;;3.42;2.20;;;23.00;90.10;;;23.15;45.37;97592.84;5017906;28;20045;-36
2023/07/18 08:41:44;;;;;;;7.13;2.35;;;23.00;88.80;;;23.18;47.98;97589.03;5025976;28;20036;-37
2023/07/18 08:44:13;;;;;;;4.32;2.47;;;23.00;90.30;;;23.27;47.17;97582.84;5023066;28;20037;-36
2023/07/18 08:46:47;;;;;;;3.25;1.77;;;23.10;90.50;;;23.39;47.00;97579.09;5022259;28;20057;-36
2023/07/18 08:49:14;;;;;;;4.22;1.95;;;23.20;90.30;;;23.47;46.28;97575.75;5018185;28;20037;-38
2023/07/18 08:51:44;;;;;;;3.50;2.03;;;23.30;89.80;;;23.56;46.27;97571.41;5021989;28;20425;-37
2023/07/18 08:54:10;;;;;;;7.72;2.00;;;23.40;89.80;;;23.61;45.11;97575.38;5018328;28;20025;-36
2023/07/18 08:56:41;;;;;;;4.63;1.88;;;23.50;88.20;;;23.65;45.96;97575.97;5018516;28;20053;-36
2023/07/18 08:59:07;;;;;;;5.07;2.20;;;23.50;87.30;;;23.75;45.09;97570.66;5022053;28;20029;-36
2023/07/18 09:01:32;;;;;;;2.63;1.90;;;23.60;87.70;;;23.86;46.03;97570.56;5022209;28;20045;-36
2023/07/18 09:03:59;;;;;;;4.55;2.15;;;23.70;88.40;;;23.92;45.11;97555.72;5025908;28;20035;-37
2023/07/18 09:06:24;;;;;;;2.42;1.65;;;23.80;87.70;;;24.09;45.81;97565.84;5014757;28;20513;-37
2023/07/18 09:08:54;;;;;;;2.58;1.83;;;24.00;88.20;;;24.10;43.68;97559.47;5019096;28;20038;-36
2023/07/18 09:11:21;;;;;;;4.25;2.20;;;24.00;84.70;;;24.17;44.20;97565.13;5017079;28;20150;-36
2023/07/18 09:13:47;;;;;;;3.67;1.80;;;24.00;85.50;;;24.25;44.42;97559.06;5026839;28;20527;-36
2023/07/18 09:16:22;;;;;;;4.45;1.90;;;24.10;85.90;;;24.29;44.42;97558.66;5012624;28;20071;-35
2023/07/18 09:18:49;;;;;;;4.20;2.00;;;24.20;85.70;;;24.34;44.75;97555.53;5018200;28;20040;-37
2023/07/18 09:21:15;;;;;;;4.38;2.25;;;24.20;86.60;;;24.25;43.96;97526.75;5022336;28;20048;-38
2023/07/18 09:23:42;;;;;;;4.78;2.22;;;24.20;84.40;;;24.34;42.61;97544.75;5017158;28;20116;-38
2023/07/18 09:26:14;;;;;;;2.97;1.88;;;24.20;82.40;;;24.44;43.74;97542.91;5018545;28;20029;-36
2023/07/18 09:28:41;;;;;;;3.38;1.90;;;24.30;84.30;;;24.47;43.51;97533.72;5024276;28;20034;-36
2023/07/18 09:31:27;;;;;;;4.43;2.00;;;24.30;84.10;;;24.55;43.39;97534.75;5024194;28;20033;-38
2023/07/18 09:33:54;;;;;;;2.80;1.58;;;24.40;83.70;;;24.68;43.91;97547.09;5024542;28;20096;-36
2023/07/18 09:36:25;;;;;;;3.35;1.73;;;24.50;84.40;;;24.72;44.16;97537.72;5015186;28;20187;-37
2023/07/18 09:38:51;;;;;;;7.30;2.03;;;24.60;84.50;;;24.92;42.19;97543.94;5020575;28;20508;-36
2023/07/18 09:41:22;;;;;;;4.25;2.40;;;24.70;82.20;;;24.92;41.83;97541.25;5017817;28;20032;-36
2023/07/18 09:43:49;;;;;;;3.08;2.20;;;24.70;80.80;;;24.90;42.48;97546.78;5020081;28;20056;-37
2023/07/18 09:46:17;;;;;;;4.40;2.35;;;24.80;82.00;;;25.00;42.64;97543.22;5018889;28;21406;-37
2023/07/18 09:48:45;;;;;;;3.85;2.13;;;24.90;81.70;;;25.04;42.72;97541.97;5012461;28;20034;-36
2023/07/18 09:51:15;;;;;;;2.78;1.80;;;24.90;81.90;;;25.05;42.26;97549.91;5017502;28;20033;-36
2023/07/18 09:53:46;;;;;;;6.32;2.20;;;25.00;81.40;;;25.19;42.61;97551.28;5010711;28;20047;-37
2023/07/18 09:56:15;;;;;;;5.30;2.00;;;25.10;81.50;;;25.51;41.37;97556.38;5014296;28;20555;-36
2023/07/18 09:58:44;;;;;;;5.25;2.40;;;25.40;81.00;;;25.91;40.58;97570.56;5017894;28;20171;-36
2023/07/18 10:01:12;;;;;;;5.65;2.30;;;25.80;79.90;;;26.28;39.82;97592.19;5019407;28;20028;-36
2023/07/18 10:03:39;;;;;;;3.25;2.03;;;26.30;77.80;;;26.61;40.09;97616.94;5019232;28;20065;-37
2023/07/18 10:06:10;;;;;;;4.13;2.05;;;26.60;78.20;;;26.93;41.16;97623.66;5016010;28;20030;-37
2023/07/18 10:08:41;;;;;;;3.92;2.35;;;26.90;80.30;;;27.02;38.28;97633.56;5022755;28;20040;-39
2023/07/18 10:11:11;;;;;;;5.90;2.35;;;27.10;75.30;;;27.11;38.40;97625.53;5018406;28;20033;-37
2023/07/18 10:13:42;;;;;;;4.15;2.05;;;27.10;74.10;;;27.15;39.70;97599.81;5012253;28;20025;-39
2023/07/18 10:16:14;;;;;;;2.67;1.92;;;27.10;76.30;;;27.17;40.45;97601.41;5006261;28;20048;-39